Seabulk Arctic — WCY7054 — position and weather

sailwx.info

Track history (hours):
 
Tides and Currents Weather Stations Pressure Air Temp Water Temp Dewpoint Dewpoint Depression Visibility Wind Speed Wind Dir Waves Ship Positions

Seabulk Arctic

Owner: LIGHTSHIP TANKERS IV LLC, FORT LAUDERDALE, FL. More information available from US FCC via Universal Licensing System and Coast Guard Vessel Documentation Center.

Last reported at 2018-Jan-24 05:29 UTC. Time now 2018-Jan-24 05:54 UTC.
Position N 26°15' W 079°58'.

Type: Tanker. MMSI: 366826000.

Date/timePositionNaut miles runAvg speedWind from/ knotsBaromVisibWave heightAir tempDewpointWater temp
2018-Jan-24 05:29N 26°15' W 079°58'1 2.3
2018-Jan-24 05:00N 26°16' W 079°59'3 5.6
2018-Jan-24 04:30N 26°13' W 079°59'3 6.3
2018-Jan-24 04:00N 26°10' W 079°59'5 9.8
2018-Jan-24 03:30N 26°05' W 079°58'815.1
2018-Jan-24 03:00N 25°58' W 079°54'816.6
2018-Jan-24 02:30N 25°50' W 079°53'816.5
2018-Jan-24 02:00N 25°42' W 079°52'816.6
2018-Jan-24 01:31N 25°34' W 079°51'816.2
2018-Jan-24 01:00N 25°26' W 079°54'815.3
2018-Jan-24 00:30N 25°19' W 079°57'  
2018-Jan-21 08:09N 29°48' W 093°21'1 9.1
2018-Jan-21 08:01N 29°49' W 093°21'4 8.7
2018-Jan-21 07:31N 29°54' W 093°21'4 8.1
2018-Jan-21 07:00N 29°58' W 093°20'3 6.8
2018-Jan-21 06:31N 30°01' W 093°20'4 7.4
2018-Jan-21 06:00N 30°05' W 093°20'3 6.6
2018-Jan-21 05:31N 30°08' W 093°20'2 3.8
2018-Jan-21 05:00N 30°10' W 093°19'0 1.0
2018-Jan-21 04:30N 30°11' W 093°19'0 0.0
2018-Jan-21 04:00N 30°11' W 093°19'0 0.0
2018-Jan-21 03:30N 30°11' W 093°19'0 0.0
2018-Jan-21 03:00N 30°11' W 093°19'0 0.0
2018-Jan-21 02:30N 30°11' W 093°19'0 0.0
2018-Jan-21 02:00N 30°11' W 093°19'0 0.0
2018-Jan-21 01:30N 30°11' W 093°19'0 0.0
2018-Jan-21 01:00N 30°11' W 093°19'0 0.0
2018-Jan-21 00:30N 30°11' W 093°19'0 0.0
2018-Jan-21 00:00N 30°11' W 093°19'0 0.0
2018-Jan-20 23:30N 30°11' W 093°19'0 0.0
2018-Jan-20 23:00N 30°11' W 093°19'0 0.0
2018-Jan-20 22:30N 30°11' W 093°19'0 0.0
2018-Jan-20 22:00N 30°11' W 093°19'0 0.0
2018-Jan-20 21:30N 30°11' W 093°19'0 0.0
2018-Jan-20 21:00N 30°11' W 093°19'0 0.0
2018-Jan-20 20:30N 30°11' W 093°19'0 0.0
2018-Jan-20 20:00N 30°11' W 093°19'0 0.0
2018-Jan-20 19:30N 30°11' W 093°19'0 0.0
2018-Jan-20 19:00N 30°11' W 093°19'0 0.0
2018-Jan-20 18:30N 30°11' W 093°19'0 0.0
2018-Jan-20 18:00N 30°11' W 093°19'0 0.0
2018-Jan-20 17:30N 30°11' W 093°19'0 0.0
2018-Jan-20 17:00N 30°11' W 093°19'0 0.0
2018-Jan-20 16:30N 30°11' W 093°19'0 0.0
2018-Jan-20 16:00N 30°11' W 093°19'0 0.0
2018-Jan-20 15:30N 30°11' W 093°19'0 0.0
2018-Jan-20 15:00N 30°11' W 093°19'0 0.0
2018-Jan-20 14:30N 30°11' W 093°19'0 0.0
2018-Jan-20 14:00N 30°11' W 093°19'0 0.0
2018-Jan-20 13:30N 30°11' W 093°19'0 0.0
2018-Jan-20 13:00N 30°11' W 093°19'0 0.0
2018-Jan-20 12:30N 30°11' W 093°19'0 0.0
2018-Jan-20 12:00N 30°11' W 093°19'0 0.0
2018-Jan-20 11:27N 30°11' W 093°19'0 0.0
2018-Jan-20 11:00N 30°11' W 093°19'0 0.0
2018-Jan-20 10:30N 30°11' W 093°19'0 0.0
2018-Jan-20 10:00N 30°11' W 093°19'0 0.0
2018-Jan-20 09:30N 30°11' W 093°19'0 0.0
2018-Jan-20 09:00N 30°11' W 093°19'0 0.0
2018-Jan-20 08:30N 30°11' W 093°19'0 0.0
2018-Jan-20 08:00N 30°11' W 093°19'0 0.0
2018-Jan-20 07:27N 30°11' W 093°19'0 0.0
2018-Jan-20 07:00N 30°11' W 093°19'0 0.0
2018-Jan-20 06:30N 30°11' W 093°19'0 0.0
2018-Jan-20 06:00N 30°11' W 093°19'0 0.0
2018-Jan-20 05:30N 30°11' W 093°19'0 0.0
2018-Jan-20 05:00N 30°11' W 093°19'0 0.0
2018-Jan-20 04:30N 30°11' W 093°19'0 0.0
2018-Jan-20 04:00N 30°11' W 093°19'0 0.0
2018-Jan-20 03:27N 30°11' W 093°19'0 0.0
2018-Jan-20 03:00N 30°11' W 093°19'0 0.0
2018-Jan-20 02:30N 30°11' W 093°19'0 0.0
2018-Jan-20 02:00N 30°11' W 093°19'0 0.0
2018-Jan-20 01:30N 30°11' W 093°19'0 0.0
2018-Jan-20 01:00N 30°11' W 093°19'0 0.0
2018-Jan-20 00:30N 30°11' W 093°19'0 0.0
2018-Jan-20 00:00N 30°11' W 093°19'0 0.0
2018-Jan-19 23:30N 30°11' W 093°19'0 0.0
2018-Jan-19 23:00N 30°11' W 093°19'0 0.0
2018-Jan-19 22:30N 30°11' W 093°19'0 0.0
2018-Jan-19 22:00N 30°11' W 093°19'0 0.0
2018-Jan-19 21:30N 30°11' W 093°19'0 0.0
2018-Jan-19 21:00N 30°11' W 093°19'0 0.0
2018-Jan-19 20:30N 30°11' W 093°19'0 0.0
2018-Jan-19 20:00N 30°11' W 093°19'0 0.0
2018-Jan-19 19:30N 30°11' W 093°19'0 0.0
2018-Jan-19 19:00N 30°11' W 093°19'0 0.0
2018-Jan-19 18:30N 30°11' W 093°19'0 0.0
2018-Jan-19 18:00N 30°11' W 093°19'0 0.0
2018-Jan-19 17:30N 30°11' W 093°19'0 0.0
2018-Jan-19 17:00N 30°11' W 093°19'0 0.0
2018-Jan-19 16:30N 30°11' W 093°19'0 0.0
2018-Jan-19 16:00N 30°11' W 093°19'0 0.0
2018-Jan-19 15:30N 30°11' W 093°19'0 0.0
2018-Jan-19 15:00N 30°11' W 093°19'0 0.0
2018-Jan-19 14:30N 30°11' W 093°19'0 0.0
2018-Jan-19 14:00N 30°11' W 093°19'0 0.0
2018-Jan-19 13:30N 30°11' W 093°19'0 0.0
2018-Jan-19 13:00N 30°11' W 093°19'0 0.0
2018-Jan-19 12:30N 30°11' W 093°19'0 0.0
2018-Jan-19 12:00N 30°11' W 093°19'0 0.0
2018-Jan-19 11:30N 30°11' W 093°19'0 0.0
2018-Jan-19 11:00N 30°11' W 093°19'0 0.0
2018-Jan-19 10:30N 30°11' W 093°19'0 0.0
2018-Jan-19 10:00N 30°11' W 093°19'0 0.0
2018-Jan-19 09:30N 30°11' W 093°19'0 0.0
2018-Jan-19 09:00N 30°11' W 093°19'0 0.0
2018-Jan-19 08:30N 30°11' W 093°19'0 0.0
2018-Jan-19 08:00N 30°11' W 093°19'0 0.0
2018-Jan-19 07:30N 30°11' W 093°19'0 0.0
2018-Jan-19 07:00N 30°11' W 093°19'0 0.0
2018-Jan-19 06:30N 30°11' W 093°19'0 0.0
2018-Jan-19 06:00N 30°11' W 093°19'0 0.0
2018-Jan-19 05:30N 30°11' W 093°19'0 0.0
2018-Jan-19 05:00N 30°11' W 093°19'0 0.0
2018-Jan-19 04:30N 30°11' W 093°19'0 0.0
2018-Jan-19 04:00N 30°11' W 093°19'0 0.0
2018-Jan-19 03:30N 30°11' W 093°19'0 0.0
2018-Jan-19 03:00N 30°11' W 093°19'0 0.0
2018-Jan-19 02:30N 30°11' W 093°19'0 0.0
2018-Jan-19 02:00N 30°11' W 093°19'0 0.0
2018-Jan-19 01:30N 30°11' W 093°19'0 0.0
2018-Jan-19 01:00N 30°11' W 093°19'0 0.0
2018-Jan-19 00:30N 30°11' W 093°19'0 0.0
2018-Jan-19 00:00N 30°11' W 093°19'0 0.0
2018-Jan-18 23:23N 30°11' W 093°19'0 1.1
2018-Jan-18 22:59N 30°11' W 093°19'1 1.5
2018-Jan-18 22:30N 30°10' W 093°19'2 4.7
2018-Jan-18 22:00N 30°08' W 093°20'4 7.7
2018-Jan-18 21:30N 30°04' W 093°20'4 7.3
2018-Jan-18 21:00N 30°00' W 093°20'4 7.1
2018-Jan-18 20:30N 29°57' W 093°20'5 9.5
2018-Jan-18 20:00N 29°52' W 093°21'510.2
2018-Jan-18 19:30N 29°47' W 093°21'  
Track history (hours):
 
Tides and Currents Weather Stations Pressure Air Temp Water Temp Dewpoint Dewpoint Depression Visibility Wind Speed Wind Dir Waves Ship Positions

Seabulk Arctic

Owner: LIGHTSHIP TANKERS IV LLC, FORT LAUDERDALE, FL. More information available from US FCC via Universal Licensing System and Coast Guard Vessel Documentation Center.

Last reported at 2018-Jan-24 05:29 UTC. Time now 2018-Jan-24 05:54 UTC.
Position N 26°15' W 079°58'.

Type: Tanker. MMSI: 366826000.

Date/timePositionNaut miles runAvg speedWind from/ knotsBaromVisibWave heightAir tempDewpointWater temp
2018-Jan-24 05:29N 26°15' W 079°58'1 2.3
2018-Jan-24 05:00N 26°16' W 079°59'3 5.6
2018-Jan-24 04:30N 26°13' W 079°59'3 6.3
2018-Jan-24 04:00N 26°10' W 079°59'5 9.8
2018-Jan-24 03:30N 26°05' W 079°58'815.1
2018-Jan-24 03:00N 25°58' W 079°54'816.6
2018-Jan-24 02:30N 25°50' W 079°53'816.5
2018-Jan-24 02:00N 25°42' W 079°52'816.6
2018-Jan-24 01:31N 25°34' W 079°51'816.2
2018-Jan-24 01:00N 25°26' W 079°54'815.3
2018-Jan-24 00:30N 25°19' W 079°57'  
2018-Jan-21 08:09N 29°48' W 093°21'1 9.1
2018-Jan-21 08:01N 29°49' W 093°21'4 8.7
2018-Jan-21 07:31N 29°54' W 093°21'4 8.1
2018-Jan-21 07:00N 29°58' W 093°20'3 6.8
2018-Jan-21 06:31N 30°01' W 093°20'4 7.4
2018-Jan-21 06:00N 30°05' W 093°20'3 6.6
2018-Jan-21 05:31N 30°08' W 093°20'2 3.8
2018-Jan-21 05:00N 30°10' W 093°19'0 1.0
2018-Jan-21 04:30N 30°11' W 093°19'0 0.0
2018-Jan-21 04:00N 30°11' W 093°19'0 0.0
2018-Jan-21 03:30N 30°11' W 093°19'0 0.0
2018-Jan-21 03:00N 30°11' W 093°19'0 0.0
2018-Jan-21 02:30N 30°11' W 093°19'0 0.0
2018-Jan-21 02:00N 30°11' W 093°19'0 0.0
2018-Jan-21 01:30N 30°11' W 093°19'0 0.0
2018-Jan-21 01:00N 30°11' W 093°19'0 0.0
2018-Jan-21 00:30N 30°11' W 093°19'0 0.0
2018-Jan-21 00:00N 30°11' W 093°19'0 0.0
2018-Jan-20 23:30N 30°11' W 093°19'0 0.0
2018-Jan-20 23:00N 30°11' W 093°19'0 0.0
2018-Jan-20 22:30N 30°11' W 093°19'0 0.0
2018-Jan-20 22:00N 30°11' W 093°19'0 0.0
2018-Jan-20 21:30N 30°11' W 093°19'0 0.0
2018-Jan-20 21:00N 30°11' W 093°19'0 0.0
2018-Jan-20 20:30N 30°11' W 093°19'0 0.0
2018-Jan-20 20:00N 30°11' W 093°19'0 0.0
2018-Jan-20 19:30N 30°11' W 093°19'0 0.0
2018-Jan-20 19:00N 30°11' W 093°19'0 0.0
2018-Jan-20 18:30N 30°11' W 093°19'0 0.0
2018-Jan-20 18:00N 30°11' W 093°19'0 0.0
2018-Jan-20 17:30N 30°11' W 093°19'0 0.0
2018-Jan-20 17:00N 30°11' W 093°19'0 0.0
2018-Jan-20 16:30N 30°11' W 093°19'0 0.0
2018-Jan-20 16:00N 30°11' W 093°19'0 0.0
2018-Jan-20 15:30N 30°11' W 093°19'0 0.0
2018-Jan-20 15:00N 30°11' W 093°19'0 0.0
2018-Jan-20 14:30N 30°11' W 093°19'0 0.0
2018-Jan-20 14:00N 30°11' W 093°19'0 0.0
2018-Jan-20 13:30N 30°11' W 093°19'0 0.0
2018-Jan-20 13:00N 30°11' W 093°19'0 0.0
2018-Jan-20 12:30N 30°11' W 093°19'0 0.0
2018-Jan-20 12:00N 30°11' W 093°19'0 0.0
2018-Jan-20 11:27N 30°11' W 093°19'0 0.0
2018-Jan-20 11:00N 30°11' W 093°19'0 0.0
2018-Jan-20 10:30N 30°11' W 093°19'0 0.0
2018-Jan-20 10:00N 30°11' W 093°19'0 0.0
2018-Jan-20 09:30N 30°11' W 093°19'0 0.0
2018-Jan-20 09:00N 30°11' W 093°19'0 0.0
2018-Jan-20 08:30N 30°11' W 093°19'0 0.0
2018-Jan-20 08:00N 30°11' W 093°19'0 0.0
2018-Jan-20 07:27N 30°11' W 093°19'0 0.0
2018-Jan-20 07:00N 30°11' W 093°19'0 0.0
2018-Jan-20 06:30N 30°11' W 093°19'0 0.0
2018-Jan-20 06:00N 30°11' W 093°19'0 0.0
2018-Jan-20 05:30N 30°11' W 093°19'0 0.0
2018-Jan-20 05:00N 30°11' W 093°19'0 0.0
2018-Jan-20 04:30N 30°11' W 093°19'0 0.0
2018-Jan-20 04:00N 30°11' W 093°19'0 0.0
2018-Jan-20 03:27N 30°11' W 093°19'0 0.0
2018-Jan-20 03:00N 30°11' W 093°19'0 0.0
2018-Jan-20 02:30N 30°11' W 093°19'0 0.0
2018-Jan-20 02:00N 30°11' W 093°19'0 0.0
2018-Jan-20 01:30N 30°11' W 093°19'0 0.0
2018-Jan-20 01:00N 30°11' W 093°19'0 0.0
2018-Jan-20 00:30N 30°11' W 093°19'0 0.0
2018-Jan-20 00:00N 30°11' W 093°19'0 0.0
2018-Jan-19 23:30N 30°11' W 093°19'0 0.0
2018-Jan-19 23:00N 30°11' W 093°19'0 0.0
2018-Jan-19 22:30N 30°11' W 093°19'0 0.0
2018-Jan-19 22:00N 30°11' W 093°19'0 0.0
2018-Jan-19 21:30N 30°11' W 093°19'0 0.0
2018-Jan-19 21:00N 30°11' W 093°19'0 0.0
2018-Jan-19 20:30N 30°11' W 093°19'0 0.0
2018-Jan-19 20:00N 30°11' W 093°19'0 0.0
2018-Jan-19 19:30N 30°11' W 093°19'0 0.0
2018-Jan-19 19:00N 30°11' W 093°19'0 0.0
2018-Jan-19 18:30N 30°11' W 093°19'0 0.0
2018-Jan-19 18:00N 30°11' W 093°19'0 0.0
2018-Jan-19 17:30N 30°11' W 093°19'0 0.0
2018-Jan-19 17:00N 30°11' W 093°19'0 0.0
2018-Jan-19 16:30N 30°11' W 093°19'0 0.0
2018-Jan-19 16:00N 30°11' W 093°19'0 0.0
2018-Jan-19 15:30N 30°11' W 093°19'0 0.0
2018-Jan-19 15:00N 30°11' W 093°19'0 0.0
2018-Jan-19 14:30N 30°11' W 093°19'0 0.0
2018-Jan-19 14:00N 30°11' W 093°19'0 0.0
2018-Jan-19 13:30N 30°11' W 093°19'0 0.0
2018-Jan-19 13:00N 30°11' W 093°19'0 0.0
2018-Jan-19 12:30N 30°11' W 093°19'0 0.0
2018-Jan-19 12:00N 30°11' W 093°19'0 0.0
2018-Jan-19 11:30N 30°11' W 093°19'0 0.0
2018-Jan-19 11:00N 30°11' W 093°19'0 0.0
2018-Jan-19 10:30N 30°11' W 093°19'0 0.0
2018-Jan-19 10:00N 30°11' W 093°19'0 0.0
2018-Jan-19 09:30N 30°11' W 093°19'0 0.0
2018-Jan-19 09:00N 30°11' W 093°19'0 0.0
2018-Jan-19 08:30N 30°11' W 093°19'0 0.0
2018-Jan-19 08:00N 30°11' W 093°19'0 0.0
2018-Jan-19 07:30N 30°11' W 093°19'0 0.0
2018-Jan-19 07:00N 30°11' W 093°19'0 0.0
2018-Jan-19 06:30N 30°11' W 093°19'0 0.0
2018-Jan-19 06:00N 30°11' W 093°19'0 0.0
2018-Jan-19 05:30N 30°11' W 093°19'0 0.0
2018-Jan-19 05:00N 30°11' W 093°19'0 0.0
2018-Jan-19 04:30N 30°11' W 093°19'0 0.0
2018-Jan-19 04:00N 30°11' W 093°19'0 0.0
2018-Jan-19 03:30N 30°11' W 093°19'0 0.0
2018-Jan-19 03:00N 30°11' W 093°19'0 0.0
2018-Jan-19 02:30N 30°11' W 093°19'0 0.0
2018-Jan-19 02:00N 30°11' W 093°19'0 0.0
2018-Jan-19 01:30N 30°11' W 093°19'0 0.0
2018-Jan-19 01:00N 30°11' W 093°19'0 0.0
2018-Jan-19 00:30N 30°11' W 093°19'0 0.0
2018-Jan-19 00:00N 30°11' W 093°19'0 0.0
2018-Jan-18 23:23N 30°11' W 093°19'0 1.1
2018-Jan-18 22:59N 30°11' W 093°19'1 1.5
2018-Jan-18 22:30N 30°10' W 093°19'2 4.7
2018-Jan-18 22:00N 30°08' W 093°20'4 7.7
2018-Jan-18 21:30N 30°04' W 093°20'4 7.3
2018-Jan-18 21:00N 30°00' W 093°20'4 7.1
2018-Jan-18 20:30N 29°57' W 093°20'5 9.5
2018-Jan-18 20:00N 29°52' W 093°21'510.2
2018-Jan-18 19:30N 29°47' W 093°21'  

Dump ship's entire track history